Racecast

Jaxson Cox

Legion of Zoom Track Club (VA) · - · Compare head to head

Athlete rating
Races 23
Seasons 1 2026
Speed rating — all races

Track & Field

TF speed rating

2026 TF

Legion of Zoom Track Club (VA) · Grade -

Date Meet Event Result Place Rating Difficulty PR/SR Flags
2026-06-20 Legacy Juneteenth Track Showcase 400m 1:15.78 12th · 4th on team -0.027 ★PR SR
2026-06-20 Legacy Juneteenth Track Showcase 200m 34.34 22nd · 5th on team -0.027
2026-06-20 Legacy Juneteenth Track Showcase 100m 15.85 26th · 6th on team -0.027 ★PR SR
2026-06-13 AAU Virginia District Qualifier - South 100m 16.14 18th · 2nd on team -0.033
2026-06-13 AAU Virginia District Qualifier - South 200m 32.69 22nd · 2nd on team -0.033 ★PR SR
2026-05-30 Va Beach Flames Invite 400m 1:22.32 35th · 5th on team -0.023
2026-05-30 Va Beach Flames Invite 200m 34.33 31st · 3rd on team -0.023
2026-05-24 HR Hurricanes CAT 5 Invite 200m 33.61 35th · 4th on team -0.035
2026-05-24 HR Hurricanes CAT 5 Invite 100m 16.25 43rd · 3rd on team -0.035
2026-05-09 VA "Legends" T & F Youth Invite 200m 34.58 45th · 3rd on team -0.033
2026-05-09 VA "Legends" T & F Youth Invite 400m 1:21.06 38th · 5th on team -0.033
2026-05-03 Queen Harrison Track Classic - -Youth Section 200m 33.3 18th · 2nd on team -0.033 PR SR
2026-05-03 Queen Harrison Track Classic - -Youth Section 100m 15.9 21st · 3rd on team -0.033 PR SR
2026-04-26 Virginia Pride Spring Kick-Off 200m 34.96 58th · 3rd on team -0.029
2026-04-26 Virginia Pride Spring Kick-Off 400m 1:18.8 42nd · 4th on team -0.029
2026-04-26 Virginia Pride Spring Kick-Off 100m 16.16 46th · 2nd on team -0.029 PR SR
2026-02-22 3rd Annual HRH Winter Storm Classic 55m 9.58 40th · 2nd on team -0.024
2026-02-22 3rd Annual HRH Winter Storm Classic 200m 34.64 35th · 3rd on team -0.024
2026-01-17 BWSP Queens and Kings - Meet 2 400m 1:18.89 21st · 3rd on team -0.024
2026-01-17 BWSP Queens and Kings - Meet 2 200m 33.63 25th · 3rd on team -0.024 PR SR
2026-01-03 BWSP Queens and Kings - Meet 1 400m 1:18.12 21st · 3rd on team -0.024 PR SR
2026-01-03 BWSP Queens and Kings - Meet 1 200m 34.23 22nd · 4th on team -0.024 PR SR
2026-01-03 BWSP Queens and Kings - Meet 1 55m 9.14 32nd · 4th on team -0.024 ★PR SR